createdAt,value
2023-05-09T00:00:29.220Z,9.00
2023-05-09T00:01:29.206Z,8.70
2023-05-09T00:02:29.351Z,9.40
2023-05-09T00:03:29.230Z,9.80
2023-05-09T00:04:29.353Z,9.00
2023-05-09T00:05:29.196Z,9.40
2023-05-09T00:06:29.162Z,9.60
2023-05-09T00:07:29.153Z,9.90
2023-05-09T00:08:29.162Z,11.20
2023-05-09T00:09:29.122Z,10.40
2023-05-09T00:10:29.162Z,10.40
2023-05-09T00:11:29.161Z,9.60
2023-05-09T00:12:29.132Z,9.50
2023-05-09T00:13:29.181Z,10.10
2023-05-09T00:14:29.078Z,10.20
2023-05-09T00:15:29.084Z,9.70
2023-05-09T00:16:29.070Z,9.80
2023-05-09T00:17:29.089Z,10.10
2023-05-09T00:18:29.025Z,11.40
2023-05-09T00:19:29.006Z,10.60
2023-05-09T00:20:29.006Z,10.60
2023-05-09T00:21:28.995Z,10.00
2023-05-09T00:22:29.021Z,10.40
2023-05-09T00:23:28.999Z,11.40
2023-05-09T00:24:28.991Z,11.10
2023-05-09T00:25:29.064Z,12.20
2023-05-09T00:26:28.947Z,12.50
2023-05-09T00:27:28.921Z,12.60
2023-05-09T00:28:28.922Z,11.70
2023-05-09T00:29:28.905Z,11.00
2023-05-09T00:30:28.891Z,11.10
2023-05-09T00:31:28.960Z,11.40
2023-05-09T00:32:28.903Z,10.70
2023-05-09T00:33:28.915Z,11.30
2023-05-09T00:34:28.875Z,11.30
2023-05-09T00:35:28.850Z,11.00
2023-05-09T00:36:28.834Z,10.80
2023-05-09T00:37:28.815Z,10.90
2023-05-09T00:38:28.949Z,11.20
2023-05-09T00:39:28.798Z,10.90
2023-05-09T00:40:28.790Z,10.60
2023-05-09T00:41:28.771Z,11.10
2023-05-09T00:42:28.771Z,11.10
2023-05-09T00:43:28.788Z,11.10
2023-05-09T00:44:28.774Z,11.10
2023-05-09T00:45:28.784Z,11.20
2023-05-09T00:46:28.804Z,10.20
2023-05-09T00:47:28.729Z,11.20
2023-05-09T00:48:28.699Z,11.60
2023-05-09T00:49:28.693Z,11.20
2023-05-09T00:50:28.715Z,10.80
2023-05-09T00:51:28.684Z,11.40
2023-05-09T00:52:28.679Z,11.20
2023-05-09T00:53:28.650Z,11.80
2023-05-09T00:54:28.653Z,11.80
2023-05-09T00:55:28.633Z,11.70
2023-05-09T00:56:28.653Z,12.20
2023-05-09T00:57:28.598Z,12.20
2023-05-09T00:58:28.601Z,12.20
2023-05-09T00:59:28.581Z,11.70
2023-05-09T01:00:29.186Z,11.40
2023-05-09T01:01:28.622Z,12.20
2023-05-09T01:02:28.659Z,11.80
2023-05-09T01:03:28.660Z,12.40
2023-05-09T01:04:28.572Z,12.30
2023-05-09T01:05:28.523Z,11.80
2023-05-09T01:06:28.517Z,11.50
2023-05-09T01:07:28.490Z,11.80
2023-05-09T01:08:28.485Z,12.20
2023-05-09T01:09:28.513Z,12.30
2023-05-09T01:10:28.454Z,12.50
2023-05-09T01:11:28.448Z,12.40
2023-05-09T01:12:28.443Z,12.50
2023-05-09T01:13:28.496Z,12.10
2023-05-09T01:14:28.502Z,12.20
2023-05-09T01:15:28.473Z,12.80
2023-05-09T01:16:28.496Z,13.00
2023-05-09T01:17:28.416Z,12.20
2023-05-09T01:18:28.380Z,12.90
2023-05-09T01:19:28.366Z,12.40
2023-05-09T01:20:28.409Z,12.60
2023-05-09T01:21:28.380Z,13.30
2023-05-09T01:22:28.336Z,13.30
2023-05-09T01:23:28.343Z,12.00
2023-05-09T01:24:28.318Z,11.60
2023-05-09T01:25:28.314Z,11.80
2023-05-09T01:26:28.294Z,12.20
2023-05-09T01:27:28.270Z,12.70
2023-05-09T01:28:28.309Z,12.10
2023-05-09T01:29:28.327Z,12.30
2023-05-09T01:30:28.284Z,13.00
2023-05-09T01:31:28.386Z,12.70
2023-05-09T01:32:28.277Z,12.40
2023-05-09T01:33:28.226Z,12.90
2023-05-09T01:34:28.203Z,12.90
2023-05-09T01:35:28.195Z,12.50
2023-05-09T01:36:28.216Z,13.40
2023-05-09T01:37:28.172Z,13.00
2023-05-09T01:38:28.157Z,13.00
2023-05-09T01:39:28.172Z,13.60
2023-05-09T01:40:28.179Z,13.70
2023-05-09T01:41:28.127Z,13.50
2023-05-09T01:42:28.163Z,12.90
2023-05-09T01:43:28.167Z,14.00
2023-05-09T01:44:28.098Z,14.10
2023-05-09T01:45:28.093Z,13.30
2023-05-09T01:46:28.210Z,13.60
2023-05-09T01:47:28.152Z,13.00
2023-05-09T01:48:28.065Z,13.60
2023-05-09T01:49:28.036Z,13.40
2023-05-09T01:50:28.030Z,12.80
2023-05-09T01:51:28.046Z,13.40
2023-05-09T01:52:28.053Z,13.70
2023-05-09T01:53:27.996Z,13.70
2023-05-09T01:54:28.013Z,14.00
2023-05-09T01:55:27.997Z,13.40
2023-05-09T01:56:27.968Z,13.30
2023-05-09T01:57:27.951Z,13.60
2023-05-09T01:58:27.956Z,14.00
2023-05-09T01:59:27.928Z,13.50
2023-05-09T02:00:27.954Z,13.50
2023-05-09T02:01:27.955Z,13.20
2023-05-09T02:02:27.975Z,13.00
2023-05-09T02:03:27.921Z,13.00
2023-05-09T02:04:27.884Z,12.90
2023-05-09T02:05:27.867Z,13.40
2023-05-09T02:06:27.895Z,13.20
2023-05-09T02:07:27.851Z,13.20
2023-05-09T02:08:27.831Z,13.50
2023-05-09T02:09:27.826Z,13.20
2023-05-09T02:10:27.817Z,13.30
2023-05-09T02:11:27.824Z,13.00
2023-05-09T02:12:27.803Z,13.00
2023-05-09T02:13:27.859Z,13.70
2023-05-09T02:14:27.827Z,14.00
2023-05-09T02:15:27.781Z,13.70
2023-05-09T02:16:27.779Z,13.60
2023-05-09T02:17:27.750Z,13.70
2023-05-09T02:18:27.752Z,14.30
2023-05-09T02:19:27.708Z,14.10
2023-05-09T02:20:27.694Z,14.30
2023-05-09T02:21:29.205Z,14.70
2023-05-09T02:22:27.686Z,13.60
2023-05-09T02:23:27.671Z,15.10
2023-05-09T02:24:27.688Z,14.30
2023-05-09T02:25:27.647Z,14.50
2023-05-09T02:26:27.630Z,13.80
2023-05-09T02:27:27.631Z,14.80
2023-05-09T02:28:27.606Z,14.80
2023-05-09T02:29:27.624Z,14.20
2023-05-09T02:30:27.583Z,13.80
2023-05-09T02:31:27.610Z,15.00
2023-05-09T02:32:27.597Z,13.80
2023-05-09T02:33:27.566Z,14.70
2023-05-09T02:34:27.592Z,14.00
2023-05-09T02:35:27.568Z,14.30
2023-05-09T02:36:27.513Z,14.30
2023-05-09T02:37:27.510Z,14.80
2023-05-09T02:38:27.536Z,14.80
2023-05-09T02:39:27.493Z,14.40
2023-05-09T02:40:27.523Z,14.90
2023-05-09T02:41:27.502Z,14.70
2023-05-09T02:42:27.454Z,15.00
2023-05-09T02:43:27.478Z,15.10
2023-05-09T02:44:27.576Z,14.90
2023-05-09T02:45:27.459Z,15.70
2023-05-09T02:46:27.574Z,15.30
2023-05-09T02:47:27.434Z,15.10
2023-05-09T02:48:27.396Z,15.20
2023-05-09T02:49:32.373Z,14.50
2023-05-09T02:50:28.386Z,15.00
2023-05-09T02:51:27.393Z,15.10
2023-05-09T02:52:27.346Z,14.60
2023-05-09T02:53:27.352Z,15.20
2023-05-09T02:54:27.339Z,15.30
2023-05-09T02:55:27.319Z,15.10
2023-05-09T02:56:27.351Z,14.80
2023-05-09T02:57:27.294Z,15.50
2023-05-09T02:58:27.287Z,15.60
2023-05-09T02:59:27.281Z,15.60
2023-05-09T03:00:27.250Z,15.20
2023-05-09T03:01:27.426Z,15.60
2023-05-09T03:02:27.340Z,14.70
2023-05-09T03:03:27.260Z,15.10
2023-05-09T03:04:27.225Z,14.90
2023-05-09T03:05:27.219Z,15.40
2023-05-09T03:06:27.247Z,16.30
2023-05-09T03:07:27.182Z,16.00
2023-05-09T03:08:27.177Z,16.10
2023-05-09T03:09:27.167Z,15.40
2023-05-09T03:10:27.149Z,15.40
2023-05-09T03:11:27.144Z,15.40
2023-05-09T03:12:27.173Z,46.60
2023-05-09T03:13:27.160Z,16.80
2023-05-09T03:14:27.114Z,17.70
2023-05-09T03:15:27.109Z,18.00
2023-05-09T03:16:27.162Z,18.90
2023-05-09T03:17:27.121Z,16.40
2023-05-09T03:18:27.112Z,25.20
2023-05-09T03:19:27.063Z,18.60
2023-05-09T03:20:27.058Z,17.30
2023-05-09T03:21:27.098Z,15.80
2023-05-09T03:22:27.046Z,17.00
2023-05-09T03:23:27.023Z,17.40
2023-05-09T03:24:27.004Z,15.50
2023-05-09T03:25:27.048Z,15.70
2023-05-09T03:26:27.011Z,15.80
2023-05-09T03:27:26.969Z,16.20
2023-05-09T03:28:27.003Z,16.20
2023-05-09T03:29:26.960Z,16.00
2023-05-09T03:30:26.945Z,15.90
2023-05-09T03:31:26.972Z,16.10
2023-05-09T03:32:26.959Z,15.90
2023-05-09T03:33:26.968Z,14.90
2023-05-09T03:34:26.943Z,15.90
2023-05-09T03:35:26.888Z,15.50
2023-05-09T03:36:26.877Z,15.90
2023-05-09T03:37:27.247Z,16.00
2023-05-09T03:38:26.896Z,15.80
2023-05-09T03:39:26.839Z,16.20
2023-05-09T03:40:26.826Z,16.60
2023-05-09T03:41:26.824Z,15.60
2023-05-09T03:42:26.818Z,16.30
2023-05-09T03:43:26.832Z,15.80
2023-05-09T03:44:26.781Z,16.00
2023-05-09T03:45:26.792Z,23.20
2023-05-09T03:46:26.834Z,16.50
2023-05-09T03:47:26.771Z,16.40
2023-05-09T03:48:26.772Z,18.40
2023-05-09T03:49:27.012Z,18.80
2023-05-09T03:50:26.709Z,21.70
2023-05-09T03:51:26.723Z,20.00
2023-05-09T03:52:26.697Z,20.00
2023-05-09T03:53:26.795Z,17.80
2023-05-09T03:54:26.709Z,17.10
2023-05-09T03:55:26.668Z,18.30
2023-05-09T03:56:26.701Z,15.80
2023-05-09T03:57:26.656Z,16.80
2023-05-09T03:58:26.663Z,15.10
2023-05-09T03:59:26.621Z,15.80
2023-05-09T04:00:26.629Z,16.30
2023-05-09T04:01:26.603Z,16.60
2023-05-09T04:02:26.692Z,18.50
2023-05-09T04:03:26.672Z,16.10
2023-05-09T04:04:26.573Z,16.50
2023-05-09T04:05:26.614Z,16.00
2023-05-09T04:06:26.552Z,18.00
2023-05-09T04:07:26.562Z,16.00
2023-05-09T04:08:26.520Z,16.90
2023-05-09T04:09:26.554Z,17.00
2023-05-09T04:10:26.523Z,17.10
2023-05-09T04:11:26.530Z,16.00
2023-05-09T04:12:26.481Z,16.90
2023-05-09T04:13:26.517Z,16.60
2023-05-09T04:14:26.452Z,17.10
2023-05-09T04:15:26.460Z,16.90
2023-05-09T04:16:26.477Z,17.10
2023-05-09T04:17:26.484Z,19.20
2023-05-09T04:18:26.418Z,19.80
2023-05-09T04:19:26.470Z,22.50
2023-05-09T04:20:26.434Z,20.40
2023-05-09T04:21:26.402Z,19.50
2023-05-09T04:22:26.364Z,19.10
2023-05-09T04:23:26.371Z,35.50
2023-05-09T04:24:26.349Z,25.30
2023-05-09T04:25:26.407Z,19.30
2023-05-09T04:26:26.325Z,21.20
2023-05-09T04:27:26.323Z,19.40
2023-05-09T04:28:26.307Z,19.60
2023-05-09T04:29:26.340Z,18.30
2023-05-09T04:30:26.280Z,19.90
2023-05-09T04:31:26.923Z,21.00
2023-05-09T04:32:26.276Z,19.10
2023-05-09T04:33:28.023Z,20.50
2023-05-09T04:34:26.263Z,19.60
2023-05-09T04:35:26.233Z,20.10
2023-05-09T04:36:27.407Z,19.80
2023-05-09T04:37:26.208Z,20.90
2023-05-09T04:38:26.206Z,20.40
2023-05-09T04:39:26.192Z,20.40
2023-05-09T04:40:26.975Z,21.00
2023-05-09T04:41:26.201Z,20.90
2023-05-09T04:42:26.172Z,20.80
2023-05-09T04:43:26.153Z,20.90
2023-05-09T04:44:26.132Z,21.30
2023-05-09T04:45:26.123Z,21.00
2023-05-09T04:46:26.217Z,20.50
2023-05-09T04:47:26.143Z,20.20
2023-05-09T04:48:26.102Z,22.60
2023-05-09T04:49:26.111Z,21.20
2023-05-09T04:50:26.074Z,21.10
2023-05-09T04:51:26.106Z,19.00
2023-05-09T04:52:26.058Z,29.00
2023-05-09T04:53:26.066Z,20.00
2023-05-09T04:54:26.159Z,19.70
2023-05-09T04:55:26.039Z,28.40
2023-05-09T04:56:26.040Z,25.20
2023-05-09T04:57:26.014Z,25.90
2023-05-09T04:58:25.986Z,21.50
2023-05-09T04:59:25.973Z,21.70
2023-05-09T05:00:25.994Z,21.40
2023-05-09T05:01:25.992Z,21.20
2023-05-09T05:02:25.956Z,19.80
2023-05-09T05:03:25.954Z,20.70
2023-05-09T05:04:25.990Z,20.80
2023-05-09T05:05:26.232Z,21.00
2023-05-09T05:06:25.901Z,20.90
2023-05-09T05:07:27.898Z,20.90
2023-05-09T05:08:25.869Z,20.40
2023-05-09T05:09:25.866Z,21.60
2023-05-09T05:10:25.853Z,20.70
2023-05-09T05:11:25.850Z,21.20
2023-05-09T05:12:25.822Z,21.40
2023-05-09T05:13:25.970Z,20.80
2023-05-09T05:14:25.802Z,21.20
2023-05-09T05:15:25.792Z,21.10
2023-05-09T05:16:25.828Z,21.30
2023-05-09T05:17:25.809Z,20.50
2023-05-09T05:18:27.225Z,21.40
2023-05-09T05:19:25.755Z,21.00
2023-05-09T05:20:25.743Z,21.40
2023-05-09T05:21:25.732Z,21.90
2023-05-09T05:22:25.755Z,21.80
2023-05-09T05:23:27.499Z,22.20
2023-05-09T05:24:25.691Z,22.50
2023-05-09T05:25:25.689Z,28.30
2023-05-09T05:26:25.672Z,22.50
2023-05-09T05:27:25.677Z,23.30
2023-05-09T05:28:25.645Z,22.70
2023-05-09T05:29:25.696Z,25.30
2023-05-09T05:30:25.631Z,22.10
2023-05-09T05:31:25.644Z,22.60
2023-05-09T05:32:25.643Z,22.90
2023-05-09T05:33:25.645Z,21.40
2023-05-09T05:34:25.582Z,22.20
2023-05-09T05:35:25.662Z,22.20
2023-05-09T05:36:25.559Z,22.20
2023-05-09T05:37:25.552Z,21.80
2023-05-09T05:38:25.684Z,22.30
2023-05-09T05:39:25.548Z,21.70
2023-05-09T05:40:25.516Z,21.80
2023-05-09T05:41:25.635Z,22.30
2023-05-09T05:42:25.500Z,22.60
2023-05-09T05:43:26.574Z,21.40
2023-05-09T05:44:25.513Z,21.80
2023-05-09T05:45:25.472Z,23.00
2023-05-09T05:46:25.480Z,22.20
2023-05-09T05:47:25.470Z,21.30
2023-05-09T05:48:25.422Z,22.10
2023-05-09T05:49:25.447Z,22.00
2023-05-09T05:50:25.433Z,23.20
2023-05-09T05:51:25.409Z,22.80
2023-05-09T05:52:25.382Z,22.90
2023-05-09T05:53:25.429Z,22.70
2023-05-09T05:54:25.359Z,23.20
2023-05-09T05:55:27.177Z,24.50
2023-05-09T05:56:25.353Z,23.60
2023-05-09T05:57:25.415Z,22.70
2023-05-09T05:58:25.320Z,23.40
2023-05-09T05:59:25.321Z,23.50
2023-05-09T06:00:25.298Z,23.20
2023-05-09T06:01:25.288Z,24.40
2023-05-09T06:02:25.631Z,25.90
2023-05-09T06:03:25.383Z,27.10
2023-05-09T06:04:25.262Z,26.90
2023-05-09T06:05:25.250Z,27.50
2023-05-09T06:06:25.268Z,27.60
2023-05-09T06:07:25.230Z,27.10
2023-05-09T06:08:26.979Z,27.50
2023-05-09T06:09:25.244Z,27.10
2023-05-09T06:10:25.204Z,28.40
2023-05-09T06:11:25.197Z,29.20
2023-05-09T06:12:26.659Z,28.50
2023-05-09T06:13:26.851Z,29.30
2023-05-09T06:14:25.141Z,29.20
2023-05-09T06:15:25.157Z,29.90
2023-05-09T06:16:25.173Z,28.50
2023-05-09T06:17:25.234Z,28.30
2023-05-09T06:18:25.805Z,28.20
2023-05-09T06:19:25.152Z,27.70
2023-05-09T06:20:25.077Z,29.20
2023-05-09T06:21:25.106Z,29.00
2023-05-09T06:22:25.666Z,29.70
2023-05-09T06:23:25.051Z,30.30
2023-05-09T06:24:35.867Z,30.40
2023-05-09T06:25:26.029Z,28.80
2023-05-09T06:26:25.021Z,28.50
2023-05-09T06:27:25.012Z,29.40
2023-05-09T06:28:25.985Z,30.40
2023-05-09T06:29:25.979Z,27.90
2023-05-09T06:30:27.208Z,27.60
2023-05-09T06:31:25.793Z,27.20
2023-05-09T06:32:28.701Z,28.30
2023-05-09T06:33:24.976Z,27.40
2023-05-09T06:34:24.930Z,28.80
2023-05-09T06:35:24.911Z,26.90
2023-05-09T06:36:24.920Z,27.60
2023-05-09T06:37:24.896Z,27.90
2023-05-09T06:38:24.929Z,28.30
2023-05-09T06:39:24.873Z,26.30
2023-05-09T06:40:24.916Z,26.40
2023-05-09T06:41:24.862Z,26.80
2023-05-09T06:42:24.843Z,27.20
2023-05-09T06:43:26.530Z,26.70
2023-05-09T06:44:26.898Z,27.30
2023-05-09T06:45:24.856Z,26.80
2023-05-09T06:46:24.854Z,27.10
2023-05-09T06:47:24.824Z,31.00
2023-05-09T06:48:24.828Z,27.90
2023-05-09T06:49:24.793Z,26.10
2023-05-09T06:50:26.465Z,25.20
2023-05-09T06:51:24.791Z,25.40
2023-05-09T06:52:24.735Z,24.80
2023-05-09T06:53:28.013Z,24.70
2023-05-09T06:54:24.720Z,23.20
2023-05-09T06:55:24.699Z,23.60
2023-05-09T06:56:24.707Z,21.80
2023-05-09T06:57:26.408Z,26.30
2023-05-09T06:58:24.693Z,21.60
2023-05-09T06:59:24.658Z,21.30
2023-05-09T07:00:24.660Z,21.00
2023-05-09T07:01:26.760Z,20.40
2023-05-09T07:02:24.711Z,19.70
2023-05-09T07:03:26.604Z,20.40
2023-05-09T07:04:24.644Z,20.10
2023-05-09T07:05:24.623Z,20.70
2023-05-09T07:06:24.593Z,19.30
2023-05-09T07:07:24.595Z,19.40
2023-05-09T07:08:24.604Z,20.10
2023-05-09T07:09:24.570Z,19.20
2023-05-09T07:10:24.544Z,19.10
2023-05-09T07:11:24.596Z,18.50
2023-05-09T07:12:24.523Z,17.60
2023-05-09T07:13:24.626Z,17.70
2023-05-09T07:14:24.505Z,18.00
2023-05-09T07:15:39.819Z,17.80
2023-05-09T07:16:25.535Z,17.30
2023-05-09T07:17:24.613Z,16.60
2023-05-09T07:18:24.467Z,16.40
2023-05-09T07:19:24.484Z,17.30
2023-05-09T07:20:24.437Z,16.10
2023-05-09T07:21:24.438Z,15.50
2023-05-09T07:22:24.511Z,15.70
2023-05-09T07:23:24.403Z,16.00
2023-05-09T07:24:24.423Z,15.90
2023-05-09T07:25:24.411Z,15.70
2023-05-09T07:26:24.375Z,14.60
2023-05-09T07:27:25.933Z,15.40
2023-05-09T07:28:24.349Z,14.90
2023-05-09T07:29:24.362Z,14.90
2023-05-09T07:30:24.329Z,15.00
2023-05-09T07:31:26.183Z,15.10
2023-05-09T07:32:24.334Z,15.50
2023-05-09T07:33:24.292Z,15.80
2023-05-09T07:34:24.308Z,14.70
2023-05-09T07:35:29.161Z,14.60
2023-05-09T07:36:24.267Z,14.90
2023-05-09T07:37:24.289Z,14.70
2023-05-09T07:38:24.246Z,13.90
2023-05-09T07:39:24.227Z,13.90
2023-05-09T07:40:24.228Z,14.40
2023-05-09T07:41:24.208Z,14.40
2023-05-09T07:42:25.881Z,13.60
2023-05-09T07:43:24.180Z,13.20
2023-05-09T07:44:24.611Z,13.80
2023-05-09T07:45:24.263Z,13.50
2023-05-09T07:46:24.218Z,13.60
2023-05-09T07:47:24.239Z,14.00
2023-05-09T07:48:24.138Z,13.80
2023-05-09T07:49:24.164Z,13.60
2023-05-09T07:50:24.179Z,12.90
2023-05-09T07:51:24.113Z,13.50
2023-05-09T07:52:24.098Z,12.90
2023-05-09T07:53:24.109Z,13.40
2023-05-09T07:54:24.084Z,13.80
2023-05-09T07:55:24.092Z,13.20
2023-05-09T07:56:24.052Z,13.20
2023-05-09T07:57:24.082Z,12.90
2023-05-09T07:58:24.089Z,12.80
2023-05-09T07:59:24.015Z,13.30
2023-05-09T08:00:24.104Z,13.30
2023-05-09T08:01:23.993Z,13.20
2023-05-09T08:02:24.024Z,13.40
2023-05-09T08:03:24.069Z,13.10
2023-05-09T08:04:23.982Z,14.00
2023-05-09T08:05:23.943Z,13.40
2023-05-09T08:06:23.947Z,13.20
2023-05-09T08:07:23.924Z,12.50
2023-05-09T08:08:23.917Z,13.20
2023-05-09T08:09:29.080Z,15.00
2023-05-09T08:10:24.002Z,11.90
2023-05-09T08:11:23.897Z,12.40
2023-05-09T08:12:23.879Z,12.30
2023-05-09T08:13:24.312Z,10.60
2023-05-09T08:14:23.863Z,10.10
2023-05-09T08:15:23.840Z,9.30
2023-05-09T08:16:23.892Z,9.30
2023-05-09T08:17:25.597Z,9.20
2023-05-09T08:18:23.836Z,9.00
2023-05-09T08:19:23.808Z,9.20
2023-05-09T08:20:25.982Z,10.00
2023-05-09T08:21:23.779Z,9.00
2023-05-09T08:22:23.770Z,9.10
2023-05-09T08:23:23.788Z,8.60
2023-05-09T08:24:23.753Z,7.90
2023-05-09T08:25:23.766Z,8.50
2023-05-09T08:26:23.733Z,8.30
2023-05-09T08:27:23.750Z,8.40
2023-05-09T08:28:24.916Z,8.60
2023-05-09T08:29:23.703Z,8.90
2023-05-09T08:30:25.394Z,8.20
2023-05-09T08:31:23.697Z,8.30
2023-05-09T08:32:23.674Z,7.40
2023-05-09T08:33:23.712Z,8.30
2023-05-09T08:34:23.641Z,7.80
2023-05-09T08:35:23.626Z,8.70
2023-05-09T08:36:23.660Z,8.20
2023-05-09T08:37:23.598Z,7.90
2023-05-09T08:38:23.614Z,7.80
2023-05-09T08:39:23.593Z,7.40
2023-05-09T08:40:23.572Z,7.40
2023-05-09T08:41:23.587Z,7.50
2023-05-09T08:42:26.181Z,6.80
2023-05-09T08:43:23.683Z,7.10
2023-05-09T08:44:23.548Z,6.90
2023-05-09T08:45:23.582Z,6.60
2023-05-09T08:46:23.565Z,6.70
2023-05-09T08:47:23.543Z,6.50
2023-05-09T08:48:23.529Z,6.90
2023-05-09T08:49:23.504Z,6.80
2023-05-09T08:50:23.477Z,6.90
2023-05-09T08:51:23.558Z,6.30
2023-05-09T08:52:23.441Z,6.40
2023-05-09T08:53:23.439Z,6.10
2023-05-09T08:54:23.410Z,6.50
2023-05-09T08:55:23.434Z,6.20
2023-05-09T08:56:23.402Z,6.00
2023-05-09T08:57:25.040Z,6.20
2023-05-09T08:58:23.379Z,6.60
2023-05-09T08:59:23.374Z,6.50
2023-05-09T09:00:23.656Z,5.80
2023-05-09T09:01:23.365Z,6.00
2023-05-09T09:02:23.344Z,7.10
2023-05-09T09:03:25.210Z,6.60
2023-05-09T09:04:23.467Z,6.60
2023-05-09T09:05:40.249Z,6.20
2023-05-09T09:06:24.282Z,5.90
2023-05-09T09:07:26.475Z,5.90
2023-05-09T09:08:23.274Z,6.30
2023-05-09T09:09:23.252Z,6.40
2023-05-09T09:10:23.246Z,6.20
2023-05-09T09:11:26.251Z,5.80
2023-05-09T09:12:23.214Z,5.70
2023-05-09T09:13:23.289Z,7.60
2023-05-09T09:14:23.258Z,6.70
2023-05-09T09:15:23.189Z,6.50
2023-05-09T09:16:23.208Z,6.20
2023-05-09T09:17:23.222Z,6.00
2023-05-09T09:18:23.175Z,6.40
2023-05-09T09:19:23.145Z,6.20
2023-05-09T09:20:24.740Z,5.40
2023-05-09T09:21:23.129Z,6.20
2023-05-09T09:22:23.159Z,6.00
2023-05-09T09:23:23.123Z,6.00
2023-05-09T09:24:23.089Z,6.00
2023-05-09T09:25:23.071Z,5.50
2023-05-09T09:26:23.069Z,5.60
2023-05-09T09:27:23.055Z,6.90
2023-05-09T09:28:23.127Z,6.00
2023-05-09T09:29:23.044Z,8.60
2023-05-09T09:30:23.061Z,5.90
2023-05-09T09:31:23.044Z,5.60
2023-05-09T09:32:27.610Z,5.90
2023-05-09T09:33:23.031Z,5.40
2023-05-09T09:34:22.992Z,5.80
2023-05-09T09:35:25.112Z,5.70
2023-05-09T09:36:23.482Z,5.40
2023-05-09T09:37:22.954Z,5.90
2023-05-09T09:38:23.761Z,5.20
2023-05-09T09:39:22.930Z,5.20
2023-05-09T09:40:22.921Z,5.40
2023-05-09T09:41:22.908Z,5.40
2023-05-09T09:42:23.022Z,5.10
2023-05-09T09:43:22.885Z,5.20
2023-05-09T09:44:22.932Z,4.80
2023-05-09T09:45:22.945Z,4.90
2023-05-09T09:46:22.975Z,4.80
2023-05-09T09:47:22.845Z,4.80
2023-05-09T09:48:22.849Z,4.80
2023-05-09T09:49:22.838Z,4.90
2023-05-09T09:50:22.843Z,4.90
2023-05-09T09:51:25.243Z,4.70
2023-05-09T09:52:22.790Z,4.80
2023-05-09T09:53:22.791Z,5.00
2023-05-09T09:54:22.764Z,5.30
2023-05-09T09:55:22.752Z,4.60
2023-05-09T09:56:22.757Z,5.00
2023-05-09T09:57:22.736Z,5.00
2023-05-09T09:58:22.762Z,4.80
2023-05-09T09:59:22.711Z,5.10
2023-05-09T10:00:23.313Z,4.70
2023-05-09T10:01:22.826Z,4.50
2023-05-09T10:02:22.679Z,4.50
2023-05-09T10:03:22.758Z,4.70
2023-05-09T10:04:22.660Z,4.40
2023-05-09T10:05:22.649Z,4.50
2023-05-09T10:06:22.688Z,4.90
2023-05-09T10:07:22.687Z,4.70
2023-05-09T10:08:22.619Z,4.70
2023-05-09T10:09:22.651Z,4.30
2023-05-09T10:10:22.685Z,4.00
2023-05-09T10:11:22.719Z,4.20
2023-05-09T10:12:22.610Z,4.30
2023-05-09T10:13:22.578Z,4.20
2023-05-09T10:14:22.538Z,4.40
2023-05-09T10:15:22.526Z,4.50
2023-05-09T10:16:35.642Z,4.40
2023-05-09T10:17:23.647Z,3.70
2023-05-09T10:18:22.724Z,6.20
2023-05-09T10:19:24.240Z,4.00
2023-05-09T10:20:22.483Z,3.50
2023-05-09T10:21:22.475Z,3.60
2023-05-09T10:22:22.466Z,3.70
2023-05-09T10:23:22.446Z,3.90
2023-05-09T10:24:22.489Z,3.90
2023-05-09T10:25:22.429Z,3.70
2023-05-09T10:26:22.412Z,3.90
2023-05-09T10:27:22.402Z,3.80
2023-05-09T10:28:22.390Z,3.70
2023-05-09T10:29:22.393Z,3.80
2023-05-09T10:30:22.439Z,3.70
2023-05-09T10:31:22.469Z,4.10
2023-05-09T10:32:22.345Z,3.60
2023-05-09T10:33:22.373Z,3.80
2023-05-09T10:34:22.336Z,4.10
2023-05-09T10:35:22.321Z,4.20
2023-05-09T10:36:22.366Z,4.20
2023-05-09T10:37:22.304Z,4.50
2023-05-09T10:38:22.299Z,4.20
2023-05-09T10:39:22.261Z,4.20
2023-05-09T10:40:22.283Z,4.90
2023-05-09T10:41:22.362Z,4.40
2023-05-09T10:42:22.238Z,4.40
2023-05-09T10:43:22.830Z,4.10
2023-05-09T10:44:22.212Z,4.30
2023-05-09T10:45:22.234Z,4.00
2023-05-09T10:46:22.223Z,4.40
2023-05-09T10:47:22.221Z,4.10
2023-05-09T10:48:22.176Z,4.40
2023-05-09T10:49:23.893Z,4.50
2023-05-09T10:50:22.156Z,4.50
2023-05-09T10:51:22.138Z,4.50
2023-05-09T10:52:22.122Z,4.40
2023-05-09T10:53:22.179Z,4.70
2023-05-09T10:54:22.105Z,4.60
2023-05-09T10:55:22.094Z,4.90
2023-05-09T10:56:24.727Z,4.20
2023-05-09T10:57:22.078Z,4.00
2023-05-09T10:58:22.998Z,4.00
2023-05-09T10:59:22.092Z,3.90
2023-05-09T11:00:22.038Z,3.90
2023-05-09T11:01:22.061Z,4.00
2023-05-09T11:02:22.115Z,4.20
2023-05-09T11:03:22.112Z,4.40
2023-05-09T11:04:23.492Z,4.30
2023-05-09T11:05:22.059Z,3.90
2023-05-09T11:06:21.976Z,4.10
2023-05-09T11:07:21.972Z,3.80
2023-05-09T11:08:21.953Z,4.20
2023-05-09T11:09:25.954Z,4.10
2023-05-09T11:10:21.946Z,4.30
2023-05-09T11:11:21.941Z,4.20
2023-05-09T11:12:21.915Z,4.10
2023-05-09T11:13:22.085Z,4.50
2023-05-09T11:14:21.929Z,4.20
2023-05-09T11:15:21.893Z,4.30
2023-05-09T11:16:21.880Z,4.20
2023-05-09T11:17:22.069Z,4.30
2023-05-09T11:18:21.855Z,3.70
2023-05-09T11:19:21.838Z,4.10
2023-05-09T11:20:21.880Z,3.90
2023-05-09T11:21:21.820Z,4.00
2023-05-09T11:22:21.822Z,3.50
2023-05-09T11:23:21.799Z,4.10
2023-05-09T11:24:21.785Z,4.00
2023-05-09T11:25:22.480Z,4.30
2023-05-09T11:26:21.761Z,4.20
2023-05-09T11:27:21.781Z,4.30
2023-05-09T11:28:21.740Z,4.30
2023-05-09T11:29:21.738Z,4.10
2023-05-09T11:30:21.753Z,4.20
2023-05-09T11:31:21.759Z,3.70
2023-05-09T11:32:21.725Z,3.70
2023-05-09T11:33:21.689Z,3.50
2023-05-09T11:34:21.673Z,3.50
2023-05-09T11:35:21.753Z,3.70
2023-05-09T11:36:21.664Z,3.40
2023-05-09T11:37:21.684Z,3.60
2023-05-09T11:38:21.642Z,3.30
2023-05-09T11:39:21.629Z,3.50
2023-05-09T11:40:21.710Z,3.60
2023-05-09T11:41:21.640Z,3.60
2023-05-09T11:42:21.596Z,3.90
2023-05-09T11:43:21.600Z,3.80
2023-05-09T11:44:21.609Z,3.60
2023-05-09T11:45:23.465Z,3.30
2023-05-09T11:46:21.791Z,2.90
2023-05-09T11:47:21.590Z,3.30
2023-05-09T11:48:21.536Z,3.10
2023-05-09T11:49:21.524Z,3.30
2023-05-09T11:50:21.592Z,2.90
2023-05-09T11:51:24.768Z,3.30
2023-05-09T11:52:23.003Z,3.10
2023-05-09T11:53:21.481Z,3.30
2023-05-09T11:54:21.472Z,3.00
2023-05-09T11:55:21.459Z,2.70
2023-05-09T11:56:21.479Z,3.10
2023-05-09T11:57:21.436Z,3.20
2023-05-09T11:58:21.429Z,2.90
2023-05-09T11:59:21.416Z,3.40
2023-05-09T12:00:21.392Z,2.80
2023-05-09T12:01:22.096Z,2.80
2023-05-09T12:02:21.423Z,2.90
2023-05-09T12:03:21.572Z,2.60
2023-05-09T12:04:21.385Z,2.80
2023-05-09T12:05:21.377Z,2.60
2023-05-09T12:06:21.358Z,2.90
2023-05-09T12:07:21.331Z,3.10
2023-05-09T12:08:21.327Z,2.90
2023-05-09T12:09:21.298Z,2.70
2023-05-09T12:10:21.291Z,2.90
2023-05-09T12:11:21.284Z,2.50
2023-05-09T12:12:23.577Z,2.70
2023-05-09T12:13:21.301Z,2.60
2023-05-09T12:14:21.250Z,2.80
2023-05-09T12:15:22.038Z,2.70
2023-05-09T12:16:21.683Z,2.60
2023-05-09T12:17:21.252Z,2.50
2023-05-09T12:18:21.200Z,2.80
2023-05-09T12:19:21.195Z,2.90
2023-05-09T12:20:21.178Z,2.80
2023-05-09T12:21:21.224Z,2.60
2023-05-09T12:22:21.157Z,2.70
2023-05-09T12:23:21.149Z,2.70
2023-05-09T12:24:21.150Z,3.40
2023-05-09T12:25:21.178Z,3.30
2023-05-09T12:26:23.654Z,2.80
2023-05-09T12:27:23.590Z,2.90
2023-05-09T12:28:21.102Z,2.70
2023-05-09T12:29:21.091Z,2.60
2023-05-09T12:30:21.075Z,2.50
2023-05-09T12:31:21.166Z,3.00
2023-05-09T12:32:21.058Z,2.40
2023-05-09T12:33:21.054Z,2.30
2023-05-09T12:34:21.034Z,1.90
2023-05-09T12:35:21.048Z,2.00
2023-05-09T12:36:21.013Z,1.90
2023-05-09T12:37:21.034Z,1.90
2023-05-09T12:38:21.108Z,2.10
2023-05-09T12:39:21.006Z,1.90
2023-05-09T12:40:21.000Z,2.20
2023-05-09T12:41:37.091Z,1.90
2023-05-09T12:42:21.937Z,2.00
2023-05-09T12:43:20.934Z,2.40
2023-05-09T12:44:23.275Z,2.00
2023-05-09T12:45:20.919Z,2.20
2023-05-09T12:46:22.844Z,2.00
2023-05-09T12:47:20.904Z,2.10
2023-05-09T12:48:20.879Z,2.10
2023-05-09T12:49:20.875Z,2.40
2023-05-09T12:50:21.027Z,2.00
2023-05-09T12:51:22.287Z,1.90
2023-05-09T12:52:22.461Z,2.20
2023-05-09T12:53:20.833Z,2.10
2023-05-09T12:54:20.813Z,2.20
2023-05-09T12:55:20.816Z,2.30
2023-05-09T12:56:20.844Z,2.10
2023-05-09T12:57:20.867Z,2.30
2023-05-09T12:58:20.824Z,2.30
2023-05-09T12:59:20.767Z,2.20
2023-05-09T13:00:20.747Z,2.10
2023-05-09T13:01:20.775Z,2.30
2023-05-09T13:02:20.762Z,2.40